Menahga, MN (56464)

7:05 AM CST on February 26, 2017 (GMT -0600)
Pyburn Addition | | Change Station

Elev 1444 ft 46.84 °N, 95.09 °W | Updated 5 seconds ago

Overcast
Overcast
18.5 °F
Feels Like 18 °F
N
1.8
Wind Variable Wind from South
Gusts 2.5 mph

Today
High -- | Low -- °F
--% Chance of Precip.
Yesterday
High -- | Low -- °F
Precip. -- in
Pressure 29.73 in
Visibility 4.0 miles
Clouds Overcast 1300 ft
Windchill 18 °F
Dew Point 9 °F
Humidity 67%
Rainfall 0.00 in
Snow Depth Not available.
7:04 AM 6:02 PM
Waning Crescent, 0% visible
METAR KPKD 261253Z AUTO 34014KT 4SM -SN OVC013 M08/M12 A2965 RMK AO2 SLP066 P0000 T10781117
Pressure 29.73 in
Visibility 4.0 miles
Clouds Overcast 1300 ft
Windchill 18 °F
Dew Point 9 °F
Humidity 67%
Rainfall 0.00 in
Snow Depth Not available.
7:04 AM 6:02 PM
Waning Crescent, 0% visible
METAR KPKD 261253Z AUTO 34014KT 4SM -SN OVC013 M08/M12 A2965 RMK AO2 SLP066 P0000 T10781117

Get Your Daily Forecast Email!

Thanks for signing up!

Be on the lookout for a verification email in your inbox.

You'll start receiving the daily forecast at 8 AM.

×

10-Day Weather Forecast

Almanac

Astronomy

Feb. 26, 2017 Rise Set
Actual Time
Civil Twilight
Nautical Twilight
Astronomical Twilight
Moon
Length of Visible Light
Length of Day
Tomorrow will be .
, % of the Moon is Illuminated

Today's Extremes

State Highs State Lows

Community

WunderPhotos

Upload Photos

1,962,540 photos uploaded!

WunderBlog® & News

Nearby

Air Quality

  Air Quality AQ Index Pollutant
Not available.

Snow Depth

Station Depth Elevation

Earthquake Activity

City Distance Mag. Time & Date
Minimum magnitude displayed is 2.5.

Coastal Water Temperatures

Place Temperature

Stations

Nearby Weather Stations

Station Location Temp. Windchill Dew Point Humidity Wind Precip. Elev Updated Type
                   

Watches & Warnings

There are currently no watches in effect.